Terminal Aerodrome Forecast
Issued by NWS

Home | Current Version | Previous Version | Text Only | Print | Product List | Glossary On
Versions: 1 2 3 4 5 6 7 8 9 10 11 12 13 14 15 16 17 18 19
000
FTUS43 KIND 300500
TAFBMG
TAF
KBMG 300522Z 3006/3106 20006KT P6SM SCT080
     FM301600 20010G20KT P6SM VCTS SCT040CB BKN080
     FM302300 15009KT 4SM SHRA BR VCTS BKN020CB
      AMD LTD TO CLD VIS AND WIND TIL 301300=

USA.gov is the U.S. government's official web portal to all federal, state and local government web resources and services.